Time;durP1;ratioP1;P1;durP2;ratioP2;P2;SDS_P1;SDS_P2;PMS_P1;PMS_P2;Temp;Humidity;BMP_temperature;BMP_pressure;BME280_temperature;BME280_humidity;BME280_pressure;Samples;Min_cycle;Max_cycle;Signal;HPM_P1;HPM_P2
2021/05/03 00:01:07;;;;;;;27.48;15.43;;;;;;;3.98;85.97;96602.78;4940831;29;20067;-72
2021/05/03 00:03:33;;;;;;;27.75;15.75;;;;;;;4.03;85.90;96606.47;4939514;29;20116;-70
2021/05/03 00:05:59;;;;;;;29.15;15.35;;;;;;;3.88;86.21;96603.91;4936781;29;20118;-70
2021/05/03 00:08:25;;;;;;;28.38;15.52;;;;;;;3.80;86.75;96598.81;4938468;29;20455;-70
2021/05/03 00:10:53;;;;;;;27.98;15.80;;;;;;;3.73;86.90;96610.16;4938305;29;20047;-70
2021/05/03 00:13:20;;;;;;;30.45;15.75;;;;;;;3.72;87.05;96608.53;4936833;29;20475;-69
2021/05/03 00:15:48;;;;;;;29.98;16.48;;;;;;;3.61;87.42;96612.41;4938100;29;20127;-72
2021/05/03 00:18:14;;;;;;;30.88;16.48;;;;;;;3.64;87.40;96606.84;4938742;29;20047;-70
2021/05/03 00:20:40;;;;;;;29.60;15.75;;;;;;;3.55;87.91;96608.75;4939510;29;20039;-70
2021/05/03 00:23:08;;;;;;;31.35;16.55;;;;;;;3.55;87.60;96602.72;4939463;29;20039;-70
2021/05/03 00:25:33;;;;;;;35.13;17.95;;;;;;;3.42;88.18;96617.16;4939149;29;20109;-71
2021/05/03 00:27:59;;;;;;;36.50;18.10;;;;;;;3.35;88.50;96607.69;4939700;29;20508;-70
2021/05/03 00:30:26;;;;;;;33.03;17.08;;;;;;;3.25;88.76;96610.56;4938490;29;20055;-71
2021/05/03 00:32:54;;;;;;;33.60;17.42;;;;;;;3.34;88.56;96609.47;4937833;29;20388;-71
2021/05/03 00:35:20;;;;;;;31.02;17.08;;;;;;;3.36;88.66;96610.09;4937717;29;20335;-71
2021/05/03 00:37:45;;;;;;;30.88;16.60;;;;;;;3.41;88.48;96606.97;4937787;29;20072;-70
2021/05/03 00:40:12;;;;;;;31.13;15.60;;;;;;;3.26;88.33;96608.75;4954480;29;20047;-70
2021/05/03 00:42:38;;;;;;;31.58;17.08;;;;;;;3.33;88.47;96607.84;4955480;29;20043;-71
2021/05/03 00:45:07;;;;;;;31.52;16.65;;;;;;;3.34;88.03;96629.47;4956016;29;20051;-72
2021/05/03 00:47:37;;;;;;;28.98;15.27;;;;;;;3.33;87.09;96626.03;4956542;29;20040;-71
2021/05/03 00:50:03;;;;;;;25.58;13.80;;;;;;;3.29;86.24;96630.00;4957991;29;20067;-71
2021/05/03 00:52:29;;;;;;;22.85;13.20;;;;;;;3.27;85.32;96628.56;4955687;29;20040;-71
2021/05/03 00:54:55;;;;;;;20.20;11.35;;;;;;;3.30;85.06;96618.63;4940922;29;20070;-71
2021/05/03 00:57:21;;;;;;;21.77;12.18;;;;;;;3.36;85.63;96623.09;4936851;29;20043;-71
2021/05/03 00:59:47;;;;;;;24.67;12.82;;;;;;;3.37;85.31;96626.50;4937516;29;20096;-72
2021/05/03 01:02:13;;;;;;;24.17;12.90;;;;;;;3.36;85.27;96625.69;4945573;29;20186;-72
2021/05/03 01:04:41;;;;;;;22.13;12.60;;;;;;;3.41;85.42;96627.75;4942633;29;20083;-72
2021/05/03 01:07:06;;;;;;;25.25;13.43;;;;;;;3.68;84.95;96623.69;4939991;29;20389;-72
2021/05/03 01:09:32;;;;;;;24.48;14.13;;;;;;;3.54;84.81;96627.13;4937584;29;20058;-71
2021/05/03 01:12:00;;;;;;;25.23;13.63;;;;;;;3.72;84.55;96608.53;4937319;29;20055;-71
2021/05/03 01:14:26;;;;;;;25.00;13.52;;;;;;;3.62;84.86;96627.03;4955610;29;20098;-71
2021/05/03 01:16:55;;;;;;;24.23;13.35;;;;;;;3.64;85.05;96628.44;4940004;29;20040;-72
2021/05/03 01:19:23;;;;;;;26.08;14.45;;;;;;;3.57;85.07;96624.16;4936620;29;20099;-72
2021/05/03 01:21:50;;;;;;;25.95;15.35;;;;;;;3.43;86.05;96626.59;4937356;29;20056;-72
2021/05/03 01:24:19;;;;;;;24.60;14.23;;;;;;;3.36;85.97;96622.28;4937653;29;20492;-71
2021/05/03 01:26:45;;;;;;;24.80;14.07;;;;;;;3.32;86.05;96624.44;4937824;29;20350;-72
2021/05/03 01:29:13;;;;;;;26.52;14.20;;;;;;;3.34;86.53;96624.28;4937348;29;20044;-72
2021/05/03 01:31:39;;;;;;;24.73;14.02;;;;;;;3.41;85.97;96618.16;4935901;29;20168;-72
2021/05/03 01:34:06;;;;;;;28.38;13.75;;;;;;;3.28;86.20;96623.19;4937200;29;20069;-72
2021/05/03 01:36:35;;;;;;;25.30;13.52;;;;;;;3.27;86.12;96621.56;4938414;29;20400;-72
2021/05/03 01:39:05;;;;;;;24.33;13.82;;;;;;;3.19;86.39;96608.66;4937829;29;20551;-71
2021/05/03 01:41:31;;;;;;;24.17;13.20;;;;;;;3.20;86.13;96620.69;4936796;29;20079;-71
2021/05/03 01:43:57;;;;;;;24.45;13.75;;;;;;;3.10;86.35;96625.34;4965946;23;20055;-75
2021/05/03 01:46:23;;;;;;;26.15;14.20;;;;;;;2.96;86.67;96633.91;4949768;29;20072;-80
2021/05/03 01:48:49;;;;;;;24.95;13.60;;;;;;;2.97;87.15;96630.34;4944878;29;20532;-78
2021/05/03 01:51:15;;;;;;;27.15;13.32;;;;;;;3.18;86.36;96627.06;4942098;29;20077;-77
2021/05/03 01:53:40;;;;;;;25.55;14.68;;;;;;;3.08;86.49;96627.31;4943038;29;20047;-77
2021/05/03 01:56:08;;;;;;;28.65;14.32;;;;;;;2.97;86.74;96625.16;4941903;29;20059;-77
2021/05/03 01:58:33;;;;;;;27.02;14.70;;;;;;;2.85;87.98;96625.59;4940163;29;20074;-77
2021/05/03 02:01:00;;;;;;;28.25;15.38;;;;;;;2.82;88.05;96627.72;4942282;29;20412;-77
2021/05/03 02:03:27;;;;;;;31.27;16.75;;;;;;;2.74;88.13;96620.00;4941549;29;20060;-76
2021/05/03 02:05:54;;;;;;;29.65;15.77;;;;;;;2.74;88.70;96618.19;4944096;29;20126;-77
2021/05/03 02:08:20;;;;;;;31.80;16.42;;;;;;;2.67;88.77;96619.88;4944284;29;20059;-77
2021/05/03 02:10:49;;;;;;;31.10;16.10;;;;;;;2.73;88.59;96629.56;4949564;29;20134;-77
2021/05/03 02:13:16;;;;;;;34.28;16.15;;;;;;;2.61;88.92;96629.19;4946546;29;20051;-78
2021/05/03 02:15:42;;;;;;;33.00;16.63;;;;;;;2.56;89.17;96628.91;4947702;29;20114;-78
2021/05/03 02:18:08;;;;;;;28.58;15.27;;;;;;;2.53;89.10;96628.44;4955945;29;20140;-77
2021/05/03 02:20:34;;;;;;;28.58;14.60;;;;;;;2.46;89.22;96628.34;4951106;29;20119;-78
2021/05/03 02:23:00;;;;;;;31.77;16.05;;;;;;;2.48;89.14;96625.59;4944822;29;20054;-77
2021/05/03 02:25:25;;;;;;;30.15;16.38;;;;;;;2.39;89.30;96630.03;4944352;29;20147;-76
2021/05/03 02:27:51;;;;;;;33.25;16.58;;;;;;;2.36;89.78;96619.97;4958010;29;20071;-76
2021/05/03 02:30:18;;;;;;;30.40;15.45;;;;;;;2.47;89.93;96626.53;4941804;29;20051;-76
2021/05/03 02:32:47;;;;;;;34.28;16.60;;;;;;;2.41;89.53;96635.03;4938778;29;20050;-77
2021/05/03 02:35:18;;;;;;;31.80;15.57;;;;;;;2.46;89.96;96624.94;4938758;29;20050;-77
2021/05/03 02:37:46;;;;;;;30.95;14.93;;;;;;;2.58;89.65;96631.31;4937623;29;20088;-77
2021/05/03 02:40:13;;;;;;;33.42;16.75;;;;;;;2.48;89.93;96629.00;4937721;29;20666;-76
2021/05/03 02:42:42;;;;;;;35.13;17.20;;;;;;;2.48;89.80;96635.97;4936217;29;20040;-75
2021/05/03 02:45:08;;;;;;;33.35;16.30;;;;;;;2.48;89.84;96635.97;4941417;29;20044;-76
2021/05/03 02:47:37;;;;;;;32.38;17.27;;;;;;;2.44;89.92;96639.91;4937683;29;20369;-75
2021/05/03 02:50:03;;;;;;;29.98;15.63;;;;;;;2.51;89.74;96635.59;4938089;29;20039;-76
2021/05/03 02:52:31;;;;;;;35.58;17.27;;;;;;;2.33;90.65;96641.09;4948952;29;20504;-76
2021/05/03 02:54:56;;;;;;;37.45;18.25;;;;;;;2.39;90.42;96647.41;4950569;29;20051;-75
2021/05/03 02:57:22;;;;;;;36.28;17.85;;;;;;;2.31;90.85;96641.28;4948689;29;20044;-74
2021/05/03 02:59:50;;;;;;;34.17;17.05;;;;;;;2.26;90.53;96642.75;4946975;29;20420;-76
2021/05/03 03:02:16;;;;;;;36.78;17.15;;;;;;;2.36;90.25;96644.16;4945256;29;20055;-75
2021/05/03 03:04:42;;;;;;;35.53;17.15;;;;;;;2.18;91.23;96641.03;4946177;29;20535;-76
2021/05/03 03:07:08;;;;;;;35.85;17.75;;;;;;;2.24;91.35;96635.16;4942909;29;20121;-76
2021/05/03 03:09:33;;;;;;;35.35;17.15;;;;;;;2.15;91.69;96640.56;4937716;29;20093;-76
2021/05/03 03:12:00;;;;;;;38.22;17.90;;;;;;;2.21;91.44;96639.91;4939282;29;20044;-76
2021/05/03 03:14:26;;;;;;;33.85;16.70;;;;;;;2.09;90.63;96648.06;4937890;29;20103;-76
2021/05/03 03:16:52;;;;;;;30.90;15.50;;;;;;;2.05;90.70;96648.59;4937887;29;20071;-76
2021/05/03 03:19:17;;;;;;;28.40;13.98;;;;;;;1.97;89.92;96646.03;4938366;29;20131;-76
2021/05/03 03:21:44;;;;;;;27.75;14.05;;;;;;;2.09;89.48;96649.84;4938139;29;20074;-76
2021/05/03 03:24:11;;;;;;;27.27;14.35;;;;;;;1.89;88.75;96641.72;4951782;29;20044;-75
2021/05/03 03:26:36;;;;;;;26.65;13.18;;;;;;;1.74;89.22;96652.00;4939331;29;20052;-77
2021/05/03 03:29:02;;;;;;;28.63;15.05;;;;;;;1.75;90.01;96656.19;4940035;29;20057;-76
2021/05/03 03:31:28;;;;;;;30.70;14.90;;;;;;;1.87;90.07;96654.03;4955537;29;20046;-76
2021/05/03 03:33:56;;;;;;;31.27;15.35;;;;;;;1.88;90.27;96660.00;4941215;29;20063;-77
2021/05/03 03:36:22;;;;;;;32.80;16.13;;;;;;;1.90;90.81;96653.69;4942829;29;20070;-77
2021/05/03 03:38:48;;;;;;;35.22;17.90;;;;;;;1.95;90.88;96658.38;4940813;29;20512;-75
2021/05/03 03:41:14;;;;;;;35.10;16.60;;;;;;;1.97;91.20;96657.22;4939704;29;20047;-77
2021/05/03 03:43:40;;;;;;;36.13;17.83;;;;;;;1.97;90.92;96654.63;4940106;29;20414;-75
2021/05/03 03:46:05;;;;;;;31.13;15.68;;;;;;;2.08;91.01;96653.41;4939835;29;20043;-75
2021/05/03 03:48:33;;;;;;;31.45;15.27;;;;;;;2.12;90.08;96656.50;4941464;29;20395;-77
2021/05/03 03:50:59;;;;;;;33.67;16.30;;;;;;;2.17;90.59;96657.59;4944015;29;20098;-78
2021/05/03 03:53:25;;;;;;;30.48;15.38;;;;;;;2.13;90.59;96658.09;4939844;29;20527;-76
2021/05/03 03:55:51;;;;;;;31.38;16.20;;;;;;;1.98;90.67;96655.44;4939814;29;20515;-78
2021/05/03 03:58:17;;;;;;;37.72;17.75;;;;;;;1.87;91.51;96664.41;4943505;29;20130;-78
2021/05/03 04:00:42;;;;;;;31.55;15.80;;;;;;;2.19;90.71;96660.81;4942687;29;20058;-78
2021/05/03 04:03:10;;;;;;;31.60;15.60;;;;;;;1.93;90.52;96668.09;4953036;29;20453;-77
2021/05/03 04:13:30;;;;;;;30.83;15.48;;;;;;;1.97;90.35;96674.56;4957943;29;20078;-80
2021/05/03 04:22:00;;;;;;;33.08;16.60;;;;;;;1.74;91.06;96670.16;4960943;28;20038;-81
2021/05/03 04:24:22;;;;;;;35.25;16.70;;;;;;;1.68;91.39;96678.59;4953172;28;20099;-77
2021/05/03 04:26:48;;;;;;;36.08;17.00;;;;;;;1.73;91.76;96681.50;4962680;28;20067;-77
2021/05/03 04:29:14;;;;;;;34.38;15.90;;;;;;;1.82;91.10;96677.88;4961949;28;20039;-77
2021/05/03 04:31:40;;;;;;;35.50;17.08;;;;;;;1.80;91.44;96690.22;4958324;28;20043;-79
2021/05/03 04:34:06;;;;;;;35.28;15.85;;;;;;;1.90;91.13;96689.22;4961348;28;20079;-80
2021/05/03 04:36:33;;;;;;;33.30;15.32;;;;;;;1.83;91.03;96684.69;4955998;29;20137;-77
2021/05/03 04:38:59;;;;;;;34.63;15.80;;;;;;;1.89;90.90;96687.59;4944174;29;20080;-76
2021/05/03 04:41:25;;;;;;;34.15;15.70;;;;;;;1.96;91.10;96689.34;4947702;29;20051;-77
2021/05/03 04:43:50;;;;;;;32.78;15.43;;;;;;;1.93;91.00;96689.66;4943655;29;20078;-77
2021/05/03 04:46:17;;;;;;;29.60;14.13;;;;;;;2.21;90.37;96692.63;4956409;29;20035;-78
2021/05/03 04:48:47;;;;;;;31.63;14.25;;;;;;;2.08;90.40;96702.72;4958258;29;20063;-77
2021/05/03 04:51:16;;;;;;;30.20;14.38;;;;;;;2.29;90.06;96705.53;4947857;29;20051;-77
2021/05/03 04:53:42;;;;;;;26.77;13.50;;;;;;;2.25;89.84;96699.06;4942032;29;20066;-77
2021/05/03 04:56:07;;;;;;;29.35;14.30;;;;;;;2.26;89.52;96708.50;4941127;29;20504;-75
2021/05/03 04:58:33;;;;;;;27.48;13.48;;;;;;;2.36;89.52;96696.06;4942136;29;20074;-78
2021/05/03 05:00:59;;;;;;;27.83;13.90;;;;;;;2.30;89.63;96704.53;4968245;29;20067;-76
2021/05/03 05:03:25;;;;;;;29.15;14.25;;;;;;;2.46;89.51;96700.22;4955727;29;20051;-78
2021/05/03 05:05:52;;;;;;;28.77;13.38;;;;;;;2.46;88.85;96708.03;4950445;29;20058;-77
2021/05/03 05:08:18;;;;;;;26.88;12.20;;;;;;;2.58;88.82;96715.25;4943404;29;20063;-72
2021/05/03 05:10:44;;;;;;;30.45;14.77;;;;;;;2.45;88.88;96704.63;4939508;29;20066;-72
2021/05/03 05:13:09;;;;;;;29.50;13.60;;;;;;;2.69;89.19;96714.06;4935385;29;20036;-73
2021/05/03 05:15:35;;;;;;;30.98;14.07;;;;;;;2.60;88.61;96717.69;4937680;29;20507;-72
2021/05/03 05:18:01;;;;;;;31.60;14.05;;;;;;;2.62;88.86;96720.91;4939872;29;20441;-71
2021/05/03 05:20:28;;;;;;;32.47;14.05;;;;;;;2.79;88.08;96717.19;4937733;29;20039;-73
2021/05/03 05:22:54;;;;;;;33.55;14.13;;;;;;;2.95;87.63;96729.25;4937777;29;20055;-73
2021/05/03 05:25:21;;;;;;;32.38;15.32;;;;;;;3.11;86.86;96726.50;4930689;29;20036;-73
2021/05/03 05:27:47;;;;;;;37.28;16.75;;;;;;;2.80;87.30;96713.63;4918492;29;20051;-72
2021/05/03 05:30:14;;;;;;;35.78;16.55;;;;;;;3.07;87.33;96720.06;4923399;29;20051;-77
2021/05/03 05:32:40;;;;;;;38.00;15.20;;;;;;;3.04;87.04;96733.41;4955133;29;20134;-78
2021/05/03 05:35:08;;;;;;;36.83;16.35;;;;;;;3.03;87.15;96725.78;4931094;29;20067;-77
2021/05/03 05:37:35;;;;;;;38.90;17.35;;;;;;;3.10;86.95;96735.31;4938875;29;20083;-73
2021/05/03 05:40:01;;;;;;;37.30;16.10;;;;;;;3.26;85.73;96729.16;4937612;29;20079;-73
2021/05/03 05:42:26;;;;;;;41.10;18.05;;;;;;;3.29;85.54;96734.00;4938497;29;20039;-79
2021/05/03 05:44:54;;;;;;;39.17;17.13;;;;;;;3.45;85.85;96740.84;4960531;29;20110;-79
2021/05/03 05:47:20;;;;;;;35.72;15.73;;;;;;;3.74;84.75;96726.22;4951333;29;20076;-79
2021/05/03 05:49:47;;;;;;;37.88;17.38;;;;;;;3.92;84.87;96731.88;4947296;28;20039;-81
2021/05/03 05:52:13;;;;;;;38.97;17.17;;;;;;;4.01;83.65;96728.19;4929778;29;20055;-81
2021/05/03 05:54:42;;;;;;;33.38;15.98;;;;;;;4.00;83.13;96738.78;4926436;29;20044;-81
2021/05/03 05:57:07;;;;;;;29.05;14.25;;;;;;;4.17;82.64;96737.59;4923682;29;20420;-80
2021/05/03 05:59:33;;;;;;;33.15;15.98;;;;;;;4.11;82.79;96739.13;4929782;29;20044;-81
2021/05/03 06:01:59;;;;;;;36.25;16.95;;;;;;;4.54;81.66;96738.41;4926636;29;20048;-81
2021/05/03 06:04:27;;;;;;;33.75;16.73;;;;;;;4.68;80.44;96734.94;4926381;29;20048;-81
2021/05/03 06:06:54;;;;;;;32.80;17.60;;;;;;;4.94;80.33;96748.22;4927464;29;20121;-81
2021/05/03 06:09:20;;;;;;;32.90;16.45;;;;;;;5.45;77.92;96739.41;4927153;29;20056;-81
2021/05/03 06:11:46;;;;;;;30.85;16.70;;;;;;;5.37;78.71;96752.59;4925843;29;20056;-81
2021/05/03 06:14:12;;;;;;;32.67;16.95;;;;;;;5.22;77.69;96748.28;4927908;29;20424;-81
2021/05/03 06:16:38;;;;;;;32.60;17.25;;;;;;;5.08;78.68;96748.34;4926250;29;20068;-82
2021/05/03 06:19:03;;;;;;;31.75;16.67;;;;;;;4.62;79.39;96748.69;4927005;29;20040;-81
2021/05/03 06:21:29;;;;;;;32.00;16.85;;;;;;;4.51;80.70;96747.38;4927530;29;20040;-82
2021/05/03 06:23:55;;;;;;;31.45;16.05;;;;;;;4.71;79.94;96745.00;4925627;29;20066;-82
2021/05/03 06:26:23;;;;;;;30.63;15.65;;;;;;;4.97;79.55;96747.84;4927151;29;20056;-80
2021/05/03 06:28:53;;;;;;;29.67;15.32;;;;;;;5.11;79.01;96750.56;4929194;29;20095;-81
2021/05/03 06:31:20;;;;;;;26.33;13.77;;;;;;;5.37;77.69;96748.16;4931091;29;20146;-82
2021/05/03 06:33:46;;;;;;;28.40;14.98;;;;;;;5.56;76.83;96756.34;4937515;29;20044;-80
2021/05/03 06:36:11;;;;;;;28.15;14.95;;;;;;;6.01;75.62;96748.00;4938448;29;20048;-82
2021/05/03 06:38:43;;;;;;;22.88;13.45;;;;;;;6.09;74.01;96751.47;4930585;29;20051;-82
2021/05/03 06:41:12;;;;;;;24.52;14.15;;;;;;;5.73;75.10;96758.47;4928428;29;20044;-82
2021/05/03 06:43:37;;;;;;;25.90;13.75;;;;;;;6.02;74.30;96761.84;4927135;29;20055;-81
2021/05/03 06:46:04;;;;;;;25.00;13.00;;;;;;;6.01;74.95;96762.88;4926913;29;20044;-82
2021/05/03 06:48:30;;;;;;;25.75;13.82;;;;;;;5.78;75.01;96752.66;4930009;29;20052;-81
2021/05/03 06:50:55;;;;;;;22.52;12.77;;;;;;;5.60;75.07;96761.00;4929845;29;20098;-81
2021/05/03 06:53:24;;;;;;;23.45;12.80;;;;;;;5.56;75.56;96756.34;4929744;29;20082;-82
2021/05/03 06:55:50;;;;;;;22.48;12.75;;;;;;;5.33;76.94;96753.94;4928436;29;20044;-83
2021/05/03 06:58:16;;;;;;;22.58;12.10;;;;;;;5.69;76.77;96765.06;4930786;29;20104;-81
2021/05/03 07:00:42;;;;;;;23.65;11.75;;;;;;;5.96;75.88;96755.59;4931752;29;20079;-82
2021/05/03 07:03:11;;;;;;;22.55;12.68;;;;;;;5.97;75.63;96759.84;4928878;29;20048;-82
2021/05/03 07:05:37;;;;;;;22.02;11.95;;;;;;;5.98;75.13;96758.84;4931628;29;20040;-81
2021/05/03 07:08:04;;;;;;;21.80;11.80;;;;;;;6.43;74.85;96761.84;4932307;29;20052;-81
2021/05/03 07:10:30;;;;;;;21.15;11.93;;;;;;;6.93;70.61;96754.53;4932930;29;20044;-82
2021/05/03 07:12:56;;;;;;;20.88;11.70;;;;;;;7.20;71.26;96762.41;4936459;29;20044;-81
2021/05/03 07:15:22;;;;;;;21.52;11.85;;;;;;;7.75;69.90;96766.44;4938206;29;20365;-81
2021/05/03 07:17:48;;;;;;;20.73;11.90;;;;;;;7.66;68.84;96762.41;4929855;29;20044;-83
2021/05/03 07:20:16;;;;;;;19.80;10.68;;;;;;;7.81;68.04;96764.81;4934813;29;20040;-81
2021/05/03 07:22:42;;;;;;;18.63;10.70;;;;;;;8.68;66.03;96769.56;4936867;29;20076;-82
2021/05/03 07:25:12;;;;;;;17.63;10.38;;;;;;;8.78;63.35;96766.50;4940044;29;20036;-81
2021/05/03 07:27:39;;;;;;;16.50;9.73;;;;;;;8.58;64.52;96766.59;4940385;29;20043;-81
2021/05/03 07:30:06;;;;;;;17.33;10.35;;;;;;;8.77;62.89;96771.94;4939939;29;20064;-81
2021/05/03 07:32:32;;;;;;;17.58;10.70;;;;;;;9.46;62.22;96766.63;4939917;29;20048;-82
2021/05/03 07:34:58;;;;;;;18.60;10.82;;;;;;;10.22;59.04;96765.50;4940114;29;20039;-82
2021/05/03 07:37:25;;;;;;;16.35;9.60;;;;;;;10.38;57.34;96760.69;4939673;29;20028;-80
2021/05/03 07:39:50;;;;;;;17.13;10.07;;;;;;;9.94;57.87;96765.97;4935353;29;20040;-81
2021/05/03 07:42:16;;;;;;;15.43;9.07;;;;;;;9.79;58.88;96768.16;4943301;23;20048;-70
2021/05/03 07:44:42;;;;;;;18.00;10.68;;;;;;;10.34;58.43;96768.22;4951679;29;20054;-69
2021/05/03 07:47:07;;;;;;;16.65;9.93;;;;;;;11.19;55.53;96762.03;4952647;29;20042;-70
2021/05/03 07:49:33;;;;;;;16.40;9.80;;;;;;;11.29;56.59;96762.28;4954143;28;20473;-70
2021/05/03 07:52:02;;;;;;;14.48;9.02;;;;;;;11.61;53.84;96757.50;4954096;28;20515;-69
2021/05/03 07:54:29;;;;;;;15.88;9.48;;;;;;;11.09;54.83;96765.22;4954453;28;20050;-69
2021/05/03 07:56:54;;;;;;;16.58;10.07;;;;;;;10.95;55.63;96766.44;4954030;28;20047;-68
2021/05/03 07:59:20;;;;;;;15.23;9.35;;;;;;;11.72;53.18;96761.19;4954332;28;20055;-69
2021/05/03 08:01:46;;;;;;;14.63;8.73;;;;;;;12.17;50.69;96766.69;4954941;28;20416;-69
2021/05/03 08:04:12;;;;;;;18.30;11.02;;;;;;;12.19;52.04;96759.34;4955216;28;20415;-69
2021/05/03 08:06:37;;;;;;;16.90;10.20;;;;;;;12.10;52.40;96763.38;4954832;29;20044;-69
2021/05/03 08:09:05;;;;;;;14.82;9.00;;;;;;;12.91;48.34;96752.81;4955522;28;20070;-69
2021/05/03 08:11:34;;;;;;;;;;;;;;;13.06;47.08;96755.72;4954959;29;20055;-69
2021/05/03 08:14:02;;;;;;;14.95;9.35;;;;;;;13.69;47.26;96752.03;4954219;29;19922;-69
2021/05/03 08:16:31;;;;;;;14.30;8.55;;;;;;;13.95;46.62;96755.84;4953294;29;20044;-69
2021/05/03 08:18:57;;;;;;;15.45;9.88;;;;;;;13.80;46.70;96756.41;4954513;28;20063;-68
2021/05/03 08:21:22;;;;;;;14.52;9.50;;;;;;;14.22;46.13;96742.72;4957600;28;20081;-68
2021/05/03 08:23:48;;;;;;;15.15;9.27;;;;;;;13.73;48.22;96752.34;4957846;28;20067;-69
2021/05/03 08:26:17;;;;;;;14.48;8.77;;;;;;;12.32;50.33;96745.91;4957682;28;20051;-68
2021/05/03 08:28:48;;;;;;;14.88;8.85;;;;;;;11.68;52.37;96752.16;4957592;28;20051;-69
2021/05/03 08:31:14;;;;;;;13.98;8.00;;;;;;;10.72;54.43;96752.19;4957555;28;20102;-69
2021/05/03 08:33:42;;;;;;;13.65;8.40;;;;;;;10.41;54.91;96744.47;4957333;28;20147;-70
2021/05/03 08:36:08;;;;;;;14.23;8.48;;;;;;;10.33;56.69;96753.47;4958099;28;20055;-69
2021/05/03 08:38:34;;;;;;;13.65;8.63;;;;;;;10.44;55.77;96744.06;4957358;28;20050;-69
2021/05/03 08:41:02;;;;;;;14.02;8.55;;;;;;;11.28;51.99;96744.88;4957112;28;20122;-69
2021/05/03 08:43:29;;;;;;;15.07;8.35;;;;;;;12.49;48.64;96740.72;4957679;28;20090;-69
2021/05/03 08:45:56;;;;;;;16.13;8.63;;;;;;;13.51;45.51;96747.81;4957775;28;20039;-70
2021/05/03 08:48:29;;;;;;;13.38;7.45;;;;;;;14.09;44.81;96743.84;4957466;28;20039;-69
2021/05/03 08:51:27;;;;;;;12.35;7.47;;;;;;;12.96;46.41;96734.41;4956773;28;20086;-69
2021/05/03 08:53:58;;;;;;;;;;;;;;;12.28;47.85;96738.72;4957074;28;20507;-70
2021/05/03 08:56:23;;;;;;;12.50;7.40;;;;;;;12.99;46.89;96740.03;4956937;28;20337;-70
2021/05/03 08:58:49;;;;;;;13.68;7.57;;;;;;;12.40;47.78;96730.75;4958176;28;20131;-69
2021/05/03 09:01:18;;;;;;;12.45;6.95;;;;;;;11.86;47.89;96730.16;4957392;28;20046;-69
2021/05/03 09:03:47;;;;;;;13.63;6.85;;;;;;;11.72;49.34;96734.84;4957221;28;20047;-70
2021/05/03 09:06:13;;;;;;;12.27;6.95;;;;;;;10.72;50.17;96733.75;4957530;28;20059;-68
2021/05/03 09:08:41;;;;;;;12.20;7.25;;;;;;;10.43;48.06;96737.97;4959637;28;20046;-70
2021/05/03 09:11:13;;;;;;;13.85;6.32;;;;;;;10.64;48.39;96736.69;4963368;28;20044;-69
2021/05/03 09:13:39;;;;;;;12.18;6.85;;;;;;;10.37;49.43;96730.16;4956805;28;20082;-68
2021/05/03 09:16:15;;;;;;;15.10;6.90;;;;;;;10.21;51.05;96732.34;4956715;28;20035;-68
2021/05/03 09:18:42;;;;;;;12.38;6.65;;;;;;;10.16;50.57;96741.91;4956721;28;20043;-69
2021/05/03 09:21:17;;;;;;;16.90;9.02;;;;;;;10.05;51.22;96732.91;4956751;28;20047;-69
2021/05/03 09:23:59;;;;;;;12.68;6.63;;;;;;;10.10;51.83;96735.69;4957478;28;20061;-69
2021/05/03 09:26:34;;;;;;;12.00;6.93;;;;;;;10.05;57.39;96732.13;4956688;28;20043;-69
2021/05/03 09:28:59;;;;;;;11.38;6.55;;;;;;;9.96;58.36;96731.63;4956860;28;20122;-70
2021/05/03 09:31:25;;;;;;;12.52;7.47;;;;;;;9.58;58.53;96731.78;4955494;28;20067;-69
2021/05/03 09:33:52;;;;;;;13.45;7.05;;;;;;;9.60;57.50;96730.56;4957742;28;20106;-69
2021/05/03 09:36:21;;;;;;;12.77;6.35;;;;;;;9.50;55.65;96727.63;4957257;29;20411;-69
2021/05/03 09:38:50;;;;;;;12.20;6.50;;;;;;;9.63;53.59;96722.25;4956825;28;20054;-69
2021/05/03 09:41:21;;;;;;;12.63;6.10;;;;;;;9.99;50.51;96725.91;4957963;28;20091;-68
2021/05/03 09:43:51;;;;;;;12.23;6.70;;;;;;;10.19;49.91;96731.75;4960527;29;20047;-68
2021/05/03 09:46:31;;;;;;;13.05;6.18;;;;;;;10.24;50.21;96724.03;4960255;29;20127;-69
2021/05/03 09:49:03;;;;;;;13.35;6.70;;;;;;;10.41;49.73;96720.81;4959898;28;20039;-70
2021/05/03 09:51:33;;;;;;;12.02;6.00;;;;;;;10.49;49.08;96712.59;4957883;28;20077;-70
2021/05/03 09:54:10;;;;;;;13.25;6.68;;;;;;;10.02;49.84;96719.44;4956150;28;20141;-68
2021/05/03 09:56:47;;;;;;;12.80;6.40;;;;;;;10.18;52.67;96719.66;4955734;28;20044;-70
2021/05/03 09:59:31;;;;;;;11.55;6.47;;;;;;;10.02;53.80;96725.50;4955995;28;20282;-68
2021/05/03 10:02:05;;;;;;;11.02;5.43;;;;;;;9.76;55.25;96731.03;4956233;28;20052;-70
2021/05/03 10:04:33;;;;;;;9.77;4.88;;;;;;;9.09;59.27;96728.13;4956350;28;20043;-70
2021/05/03 10:06:59;;;;;;;11.55;6.00;;;;;;;8.71;60.53;96734.25;4954537;29;20043;-68
2021/05/03 10:09:26;;;;;;;14.80;7.60;;;;;;;8.34;66.65;96738.41;4959490;28;20078;-69
2021/05/03 10:11:52;;;;;;;13.13;6.18;;;;;;;8.18;68.81;96734.47;4968238;28;20050;-69
2021/05/03 10:14:18;;;;;;;12.52;6.47;;;;;;;7.77;68.24;96725.13;4967984;28;20048;-69
2021/05/03 10:16:46;;;;;;;14.45;7.72;;;;;;;7.88;72.22;96728.91;4969937;28;20101;-69
2021/05/03 10:19:15;;;;;;;12.52;6.70;;;;;;;8.09;67.10;96717.38;4968407;28;20074;-69
2021/05/03 10:21:43;;;;;;;13.38;6.63;;;;;;;8.55;68.00;96722.41;4983523;28;20051;-69
2021/05/03 10:24:09;;;;;;;;;;;;;;;8.72;67.55;96714.88;4965929;28;20106;-69
2021/05/03 10:26:35;;;;;;;12.27;6.20;;;;;;;8.79;66.21;96722.72;4957005;29;19926;-69
2021/05/03 10:29:03;;;;;;;13.13;6.50;;;;;;;9.10;67.12;96725.31;4956015;28;20047;-68
2021/05/03 10:31:58;;;;;;;12.68;6.40;;;;;;;9.57;65.27;96727.53;4956449;28;20183;-70
2021/05/03 10:34:41;;;;;;;12.60;6.15;;;;;;;9.72;63.20;96710.41;4956228;28;20051;-69
2021/05/03 10:37:47;;;;;;;11.15;5.82;;;;;;;10.24;60.62;96708.28;4955806;28;20121;-69
2021/05/03 10:40:43;;;;;;;12.45;6.50;;;;;;;10.31;59.34;96707.38;4971313;28;20043;-70
2021/05/03 10:43:13;;;;;;;11.93;5.97;;;;;;;10.25;59.20;96703.81;4955439;28;20040;-70
2021/05/03 10:45:41;;;;;;;11.88;6.25;;;;;;;10.13;55.88;96695.84;4954016;29;20134;-69
2021/05/03 10:48:31;;;;;;;11.23;6.15;;;;;;;10.20;55.91;96685.25;4955410;28;20035;-69
2021/05/03 10:50:59;;;;;;;12.13;5.80;;;;;;;9.97;55.65;96696.44;4954088;29;20047;-69
2021/05/03 10:53:40;;;;;;;11.27;5.70;;;;;;;10.16;53.86;96682.25;4955147;28;20031;-69
2021/05/03 10:56:11;;;;;;;9.93;5.20;;;;;;;9.86;52.99;96690.09;4955005;28;20058;-69
2021/05/03 10:59:07;;;;;;;9.50;4.68;;;;;;;10.13;52.97;96680.06;4955947;28;20047;-69
2021/05/03 11:02:02;;;;;;;9.68;4.70;;;;;;;9.84;51.35;96692.09;4953679;29;20055;-70
2021/05/03 11:04:29;;;;;;;12.90;5.55;;;;;;;9.87;50.43;96680.38;4954790;28;20051;-70
2021/05/03 11:07:05;;;;;;;9.93;5.07;;;;;;;10.06;52.11;96681.16;4955618;28;20118;-68
2021/05/03 11:09:38;;;;;;;10.63;5.57;;;;;;;10.08;50.31;96677.28;4961618;28;20062;-70
2021/05/03 11:12:30;;;;;;;9.27;4.70;;;;;;;10.34;51.85;96664.88;4955959;28;20039;-70
2021/05/03 11:15:27;;;;;;;11.73;5.68;;;;;;;10.44;51.88;96659.88;4961719;28;20074;-69
2021/05/03 11:18:21;;;;;;;12.13;5.60;;;;;;;11.02;50.76;96656.56;4951228;28;20059;-68
2021/05/03 11:21:03;;;;;;;11.40;5.28;;;;;;;10.97;46.69;96651.19;4955903;28;20070;-70
2021/05/03 11:23:33;;;;;;;9.68;4.85;;;;;;;11.37;46.96;96642.66;4954886;28;20105;-69
2021/05/03 11:25:58;;;;;;;11.77;4.90;;;;;;;11.45;47.14;96645.72;4954561;28;20495;-69
2021/05/03 11:28:35;;;;;;;9.05;4.60;;;;;;;11.25;45.16;96640.81;4953824;29;20043;-70
2021/05/03 11:31:15;;;;;;;9.93;4.50;;;;;;;11.15;45.16;96634.50;4954746;28;20035;-68
2021/05/03 11:33:50;;;;;;;9.63;4.68;;;;;;;10.90;43.90;96634.72;4955122;28;20047;-69
2021/05/03 11:36:31;;;;;;;8.88;4.28;;;;;;;10.98;44.82;96626.50;4958602;28;20102;-69
2021/05/03 11:46:36;;;;;;;10.43;4.88;;;;;;;11.23;44.17;96627.06;4954568;28;20103;-70
2021/05/03 11:49:15;;;;;;;9.73;4.47;;;;;;;11.71;43.18;96627.81;4954411;29;20043;-69
2021/05/03 11:51:45;;;;;;;8.10;3.67;;;;;;;11.83;40.69;96618.06;4955490;28;20463;-70
2021/05/03 11:54:25;;;;;;;10.20;3.88;;;;;;;12.07;41.11;96613.53;4956046;28;20071;-70